sensor_id;sensor_type;location;lat;lon;timestamp;pressure;altitude;pressure_sealevel;temperature;humidity
63654;BME280;49809;47.418;19.080;2023-05-23T00:02:35;100217.41;;;15.52;100.00
63654;BME280;49809;47.418;19.080;2023-05-23T00:05:43;100215.28;;;15.49;100.00
63654;BME280;49809;47.418;19.080;2023-05-23T00:09:06;100214.78;;;15.47;100.00
63654;BME280;49809;47.418;19.080;2023-05-23T00:12:09;100216.06;;;15.49;100.00
63654;BME280;49809;47.418;19.080;2023-05-23T00:15:14;100217.16;;;15.48;100.00
63654;BME280;49809;47.418;19.080;2023-05-23T00:18:18;100211.59;;;15.45;100.00
63654;BME280;49809;47.418;19.080;2023-05-23T00:21:21;100204.75;;;15.39;100.00
63654;BME280;49809;47.418;19.080;2023-05-23T00:24:28;100210.94;;;15.34;100.00
63654;BME280;49809;47.418;19.080;2023-05-23T00:27:33;100214.66;;;15.33;100.00
63654;BME280;49809;47.418;19.080;2023-05-23T00:30:37;100210.47;;;15.27;100.00
63654;BME280;49809;47.418;19.080;2023-05-23T00:33:40;100213.19;;;15.22;100.00
63654;BME280;49809;47.418;19.080;2023-05-23T00:36:44;100209.22;;;15.19;100.00
63654;BME280;49809;47.418;19.080;2023-05-23T00:39:49;100202.31;;;15.18;100.00
63654;BME280;49809;47.418;19.080;2023-05-23T00:43:15;100204.44;;;15.16;100.00
63654;BME280;49809;47.418;19.080;2023-05-23T00:46:18;100205.81;;;15.14;100.00
63654;BME280;49809;47.418;19.080;2023-05-23T00:49:24;100205.56;;;15.10;100.00
63654;BME280;49809;47.418;19.080;2023-05-23T00:52:50;100220.22;;;15.13;100.00
63654;BME280;49809;47.418;19.080;2023-05-23T00:55:55;100215.22;;;15.06;100.00
63654;BME280;49809;47.418;19.080;2023-05-23T00:59:01;100218.72;;;15.02;100.00
63654;BME280;49809;47.418;19.080;2023-05-23T01:02:07;100216.81;;;15.07;100.00
63654;BME280;49809;47.418;19.080;2023-05-23T01:05:13;100217.94;;;15.01;100.00
63654;BME280;49809;47.418;19.080;2023-05-23T01:08:20;100220.66;;;14.96;100.00
63654;BME280;49809;47.418;19.080;2023-05-23T01:11:32;100221.13;;;15.03;100.00
63654;BME280;49809;47.418;19.080;2023-05-23T01:21:35;100209.75;;;14.93;100.00
63654;BME280;49809;47.418;19.080;2023-05-23T01:27:54;100213.28;;;14.88;100.00
63654;BME280;49809;47.418;19.080;2023-05-23T01:31:02;100200.47;;;14.90;100.00
63654;BME280;49809;47.418;19.080;2023-05-23T01:34:06;100205.00;;;14.90;100.00
63654;BME280;49809;47.418;19.080;2023-05-23T01:37:10;100202.13;;;14.86;100.00
63654;BME280;49809;47.418;19.080;2023-05-23T01:40:17;100206.41;;;14.82;100.00
63654;BME280;49809;47.418;19.080;2023-05-23T01:43:21;100207.53;;;14.76;100.00
63654;BME280;49809;47.418;19.080;2023-05-23T01:46:32;100203.37;;;14.65;100.00
63654;BME280;49809;47.418;19.080;2023-05-23T01:49:36;100196.44;;;14.64;100.00
63654;BME280;49809;47.418;19.080;2023-05-23T01:52:45;100194.62;;;14.59;100.00
63654;BME280;49809;47.418;19.080;2023-05-23T01:55:52;100192.00;;;14.54;100.00
63654;BME280;49809;47.418;19.080;2023-05-23T01:58:57;100196.81;;;14.52;100.00
63654;BME280;49809;47.418;19.080;2023-05-23T02:02:37;100196.56;;;14.49;100.00
63654;BME280;49809;47.418;19.080;2023-05-23T02:05:42;100188.12;;;14.42;100.00
63654;BME280;49809;47.418;19.080;2023-05-23T02:08:52;100192.41;;;14.38;100.00
63654;BME280;49809;47.418;19.080;2023-05-23T02:11:55;100190.81;;;14.37;100.00
63654;BME280;49809;47.418;19.080;2023-05-23T02:14:59;100185.50;;;14.37;100.00
63654;BME280;49809;47.418;19.080;2023-05-23T02:18:07;100188.16;;;14.31;100.00
63654;BME280;49809;47.418;19.080;2023-05-23T02:21:32;100190.59;;;14.28;100.00
63654;BME280;49809;47.418;19.080;2023-05-23T02:24:37;100183.16;;;14.25;100.00
63654;BME280;49809;47.418;19.080;2023-05-23T02:27:42;100175.19;;;14.20;100.00
63654;BME280;49809;47.418;19.080;2023-05-23T02:30:46;100177.59;;;14.21;100.00
63654;BME280;49809;47.418;19.080;2023-05-23T02:33:49;100180.28;;;14.16;100.00
63654;BME280;49809;47.418;19.080;2023-05-23T02:37:03;100185.34;;;14.18;100.00
63654;BME280;49809;47.418;19.080;2023-05-23T02:40:16;100193.00;;;14.24;100.00
63654;BME280;49809;47.418;19.080;2023-05-23T02:43:21;100190.41;;;14.14;100.00
63654;BME280;49809;47.418;19.080;2023-05-23T02:46:25;100184.06;;;14.10;100.00
63654;BME280;49809;47.418;19.080;2023-05-23T02:49:28;100184.09;;;14.05;100.00
63654;BME280;49809;47.418;19.080;2023-05-23T02:52:32;100181.16;;;14.07;100.00
63654;BME280;49809;47.418;19.080;2023-05-23T02:55:39;100176.09;;;14.05;100.00
63654;BME280;49809;47.418;19.080;2023-05-23T02:58:45;100178.75;;;14.05;100.00
63654;BME280;49809;47.418;19.080;2023-05-23T03:01:48;100176.09;;;14.05;100.00
63654;BME280;49809;47.418;19.080;2023-05-23T03:04:56;100164.97;;;14.03;100.00
63654;BME280;49809;47.418;19.080;2023-05-23T03:07:59;100162.31;;;13.98;100.00
63654;BME280;49809;47.418;19.080;2023-05-23T03:11:02;100167.16;;;13.91;100.00
63654;BME280;49809;47.418;19.080;2023-05-23T03:14:05;100168.97;;;13.96;100.00
63654;BME280;49809;47.418;19.080;2023-05-23T03:17:10;100170.06;;;13.89;100.00
63654;BME280;49809;47.418;19.080;2023-05-23T03:20:13;100178.34;;;13.88;100.00
63654;BME280;49809;47.418;19.080;2023-05-23T03:23:37;100182.63;;;13.89;100.00
63654;BME280;49809;47.418;19.080;2023-05-23T03:26:42;100178.34;;;13.88;100.00
63654;BME280;49809;47.418;19.080;2023-05-23T03:29:50;100183.66;;;13.93;100.00
63654;BME280;49809;47.418;19.080;2023-05-23T03:32:53;100183.09;;;13.96;100.00
63654;BME280;49809;47.418;19.080;2023-05-23T03:35:57;100175.91;;;13.97;100.00
63654;BME280;49809;47.418;19.080;2023-05-23T03:39:01;100174.28;;;14.01;100.00
63654;BME280;49809;47.418;19.080;2023-05-23T03:42:05;100178.75;;;14.05;100.00
63654;BME280;49809;47.418;19.080;2023-05-23T03:45:10;100180.34;;;14.06;100.00
63654;BME280;49809;47.418;19.080;2023-05-23T03:48:14;100179.25;;;14.12;100.00
63654;BME280;49809;47.418;19.080;2023-05-23T03:51:20;100169.66;;;14.16;100.00
63654;BME280;49809;47.418;19.080;2023-05-23T03:54:43;100173.34;;;14.20;100.00
63654;BME280;49809;47.418;19.080;2023-05-23T03:57:50;100175.97;;;14.25;100.00
63654;BME280;49809;47.418;19.080;2023-05-23T04:00:56;100175.94;;;14.30;100.00
63654;BME280;49809;47.418;19.080;2023-05-23T04:04:04;100174.50;;;14.43;100.00
63654;BME280;49809;47.418;19.080;2023-05-23T04:07:10;100176.25;;;14.58;100.00
63654;BME280;49809;47.418;19.080;2023-05-23T04:10:16;100178.81;;;14.68;100.00
63654;BME280;49809;47.418;19.080;2023-05-23T04:13:24;100177.59;;;14.84;100.00
63654;BME280;49809;47.418;19.080;2023-05-23T04:16:29;100183.84;;;14.98;100.00
